Buoy 41607

sailwx.info

Track history (hours):
 
Tides and Currents Weather Stations Pressure Air Temp Water Temp Dewpoint Dewpoint Depression Visibility Wind Speed Wind Dir Waves Ship Positions

Drifting buoy 41607

Last reported at 2014-Oct-20 17:00 UTC. Time now 2014-Oct-20 21:13 UTC.
Position N 24°32' W 052°39'.

Water temperature 27.6 ° C

Date/timePositionNaut miles runAvg speedWind from/ knotsBaromVisibWave heightAir tempDewpointWater temp
2014-Oct-20 17:00N 24°32' W 052°39'0 0.0 27.6
2014-Oct-20 16:00N 24°32' W 052°39'2 1.8 27.6
2014-Oct-20 15:00N 24°34' W 052°38'0 0.0 27.6
2014-Oct-20 13:00N 24°34' W 052°38'0 0.1 27.6
2014-Oct-20 12:00N 24°34' W 052°38'0 0.0 27.6
2014-Oct-20 10:00N 24°34' W 052°38'1 1.0 27.6
2014-Oct-20 09:00N 24°35' W 052°38'0 0.0 27.6
2014-Oct-20 08:00N 24°35' W 052°38'2 0.7 27.7
2014-Oct-20 05:00N 24°37' W 052°39'0 0.0 27.7
2014-Oct-20 04:00N 24°37' W 052°39'2 0.5 27.7
2014-Oct-20 01:00N 24°38' W 052°40'1 0.2 27.7
2014-Oct-19 21:00N 24°38' W 052°41'1 0.9 27.7
2014-Oct-19 20:00N 24°38' W 052°42'1 0.6 27.8
2014-Oct-19 19:00N 24°37' W 052°42'0 0.0 27.8
2014-Oct-19 17:00N 24°37' W 052°42'0 0.0 27.8
2014-Oct-19 16:00N 24°37' W 052°42'1 0.7 27.8
2014-Oct-19 15:00N 24°38' W 052°41'0 0.2 27.8
2014-Oct-19 14:00N 24°37' W 052°41'0 0.0 27.8
2014-Oct-19 13:00N 24°37' W 052°41'0 0.1 27.7
2014-Oct-19 09:00N 24°38' W 052°41'0 0.0 27.7
2014-Oct-19 08:00N 24°38' W 052°41'4 0.5 27.7
2014-Oct-19 01:00N 24°41' W 052°41'1 0.8 27.7
2014-Oct-19 00:00N 24°42' W 052°41'1 0.3 27.7
2014-Oct-18 21:00N 24°43' W 052°42'1 0.8 27.8
2014-Oct-18 20:00N 24°43' W 052°41'1 0.5 27.8
2014-Oct-18 17:00N 24°43' W 052°42'0 0.0 28.0
2014-Oct-18 15:00N 24°43' W 052°42'1 0.2 28.0
2014-Oct-18 12:00N 24°44' W 052°42'0 0.0 27.7
2014-Oct-18 11:00N 24°44' W 052°42'0 0.0 27.7
2014-Oct-18 10:00N 24°44' W 052°42'2 1.8 27.7
2014-Oct-18 09:00N 24°45' W 052°40'0 0.0 27.7
2014-Oct-18 07:00N 24°45' W 052°40'0 0.0 27.7
2014-Oct-18 06:00N 24°45' W 052°40'2 1.8 27.7
2014-Oct-18 05:00N 24°46' W 052°39'1 0.3 27.7
2014-Oct-18 02:00N 24°47' W 052°39'0 0.0 27.8
2014-Oct-18 01:00N 24°47' W 052°39'2 0.8 27.8
2014-Oct-17 23:00N 24°49' W 052°39'2 1.8 27.8
2014-Oct-17 22:00N 24°50' W 052°39'0 0.0 27.8
2014-Oct-17 21:00N 24°50' W 052°39'0 0.0 27.8
2014-Oct-17 19:00N 24°50' W 052°39'1 0.4 27.9
2014-Oct-17 17:00N 24°51' W 052°40'0 0.0 27.9
2014-Oct-17 15:00N 24°51' W 052°40'1 0.9 27.8
2014-Oct-17 14:00N 24°51' W 052°39'0 0.1 27.8
2014-Oct-17 12:00N 24°51' W 052°39'0 0.0 27.7
2014-Oct-17 10:00N 24°51' W 052°39'1 0.5 27.7
2014-Oct-17 08:00N 24°51' W 052°38'0 0.0 27.7
2014-Oct-17 07:00N 24°51' W 052°38'0 0.0 27.7
2014-Oct-17 06:00N 24°51' W 052°38'5 0.8 27.7
2014-Oct-17 00:00N 24°54' W 052°33'0 0.0 27.8
2014-Oct-16 23:00N 24°54' W 052°33'0 0.0 27.8
2014-Oct-16 22:00N 24°54' W 052°33'2 0.8 27.8
2014-Oct-16 20:00N 24°55' W 052°32'1 0.1 27.8
2014-Oct-16 11:00N 24°56' W 052°31'0 0.0 27.8
2014-Oct-16 10:00N 24°56' W 052°31'1 0.2 27.8
2014-Oct-16 06:00N 24°55' W 052°31'7 0.6 27.8
2014-Oct-15 18:00N 24°56' W 052°22'0 0.1 28.0
2014-Oct-15 16:00N 24°56' W 052°22'3 0.8 28.0
2014-Oct-15 12:00N 24°56' W 052°19'1 0.2 28.0
2014-Oct-15 06:00N 24°56' W 052°18'4 0.8 28.1
2014-Oct-15 01:00N 24°55' W 052°14'0 0.0 28.3
2014-Oct-14 23:00N 24°55' W 052°14'1 0.1 28.4
2014-Oct-14 18:00N 24°55' W 052°13'0 0.2 29.2
2014-Oct-14 16:00N 24°55' W 052°13'1 0.4 29.2
2014-Oct-14 13:00N 24°55' W 052°11'1 0.7 28.3
2014-Oct-14 12:00N 24°55' W 052°11'0 0.1 28.1
2014-Oct-14 09:00N 24°55' W 052°11'0 0.1 28.0
2014-Oct-14 06:00N 24°55' W 052°11'3 0.5 28.1
2014-Oct-14 01:00N 24°53' W 052°09'1 0.5 28.2
2014-Oct-13 22:00N 24°53' W 052°08'0 0.2 28.5
2014-Oct-13 20:00N 24°53' W 052°08'0 0.4 28.9
2014-Oct-13 19:00N 24°53' W 052°08'0 0.4 29.0
2014-Oct-13 18:00N 24°53' W 052°07'0 0.2 29.1
2014-Oct-13 17:00N 24°53' W 052°07'0 0.0 29.1
2014-Oct-13 16:00N 24°53' W 052°07'2 0.3 29.3
2014-Oct-13 10:00N 24°52' W 052°06'1 0.8 27.9
2014-Oct-13 09:00N 24°52' W 052°05'0 0.0 27.9
2014-Oct-13 08:00N 24°52' W 052°05'0 0.1 27.9
2014-Oct-13 07:00N 24°52' W 052°05'2 0.4 28.0
2014-Oct-13 01:00N 24°51' W 052°02'0 0.0 28.0
2014-Oct-13 00:00N 24°51' W 052°02'0 0.0 28.0
2014-Oct-12 21:00N 24°51' W 052°02'2 1.7 28.1
2014-Oct-12 20:00N 24°50' W 052°04'0 0.0 28.1
2014-Oct-12 18:00N 24°50' W 052°04'0 0.1 28.1
2014-Oct-12 16:00N 24°50' W 052°04'3 1.5 28.1
2014-Oct-12 14:00N 24°47' W 052°02'0 0.0 28.0
2014-Oct-12 12:00N 24°47' W 052°02'0 0.0 27.9
2014-Oct-12 11:00N 24°47' W 052°02'0 0.1 27.9
2014-Oct-12 10:00N 24°47' W 052°02'1 0.6 27.9
2014-Oct-12 09:00N 24°47' W 052°01'2 0.2 27.9
2014-Oct-12 00:00N 24°45' W 052°02'0 0.0 28.0
2014-Oct-11 23:00N 24°45' W 052°02'0 0.0 28.0
2014-Oct-11 20:00N 24°45' W 052°01'0 0.0 28.0
2014-Oct-11 19:00N 24°45' W 052°01'1 0.4 28.1
2014-Oct-11 17:00N 24°44' W 052°01'0 0.0 28.1
2014-Oct-11 16:00N 24°44' W 052°01'1 1.3 28.1
2014-Oct-11 15:00N 24°43' W 052°01'2 0.4 28.0
2014-Oct-11 11:00N 24°42' W 052°00'0 0.0 27.9
2014-Oct-11 10:00N 24°42' W 052°00'1 1.1 27.9
2014-Oct-11 09:00N 24°41' W 051°59'0 0.0 27.9
2014-Oct-11 07:00N 24°41' W 051°59'0 0.0 27.9
2014-Oct-11 05:00N 24°41' W 051°59'1 1.1 27.9
2014-Oct-11 04:00N 24°41' W 052°00'1 0.4 27.9
2014-Oct-11 01:00N 24°40' W 052°02'1 0.3 28.0
2014-Oct-10 22:00N 24°39' W 052°02'0 0.0 28.0
2014-Oct-10 19:00N 24°39' W 052°02'1 0.8 28.0
2014-Oct-10 18:00N 24°39' W 052°03'0 0.0 28.0
2014-Oct-10 17:00N 24°39' W 052°03'   28.0
Track history (hours):
 
Tides and Currents Weather Stations Pressure Air Temp Water Temp Dewpoint Dewpoint Depression Visibility Wind Speed Wind Dir Waves Ship Positions

Drifting buoy 41607

Last reported at 2014-Oct-20 17:00 UTC. Time now 2014-Oct-20 21:13 UTC.
Position N 24°32' W 052°39'.

Water temperature 27.6 ° C

Date/timePositionNaut miles runAvg speedWind from/ knotsBaromVisibWave heightAir tempDewpointWater temp
2014-Oct-20 17:00N 24°32' W 052°39'0 0.0 27.6
2014-Oct-20 16:00N 24°32' W 052°39'2 1.8 27.6
2014-Oct-20 15:00N 24°34' W 052°38'0 0.0 27.6
2014-Oct-20 13:00N 24°34' W 052°38'0 0.1 27.6
2014-Oct-20 12:00N 24°34' W 052°38'0 0.0 27.6
2014-Oct-20 10:00N 24°34' W 052°38'1 1.0 27.6
2014-Oct-20 09:00N 24°35' W 052°38'0 0.0 27.6
2014-Oct-20 08:00N 24°35' W 052°38'2 0.7 27.7
2014-Oct-20 05:00N 24°37' W 052°39'0 0.0 27.7
2014-Oct-20 04:00N 24°37' W 052°39'2 0.5 27.7
2014-Oct-20 01:00N 24°38' W 052°40'1 0.2 27.7
2014-Oct-19 21:00N 24°38' W 052°41'1 0.9 27.7
2014-Oct-19 20:00N 24°38' W 052°42'1 0.6 27.8
2014-Oct-19 19:00N 24°37' W 052°42'0 0.0 27.8
2014-Oct-19 17:00N 24°37' W 052°42'0 0.0 27.8
2014-Oct-19 16:00N 24°37' W 052°42'1 0.7 27.8
2014-Oct-19 15:00N 24°38' W 052°41'0 0.2 27.8
2014-Oct-19 14:00N 24°37' W 052°41'0 0.0 27.8
2014-Oct-19 13:00N 24°37' W 052°41'0 0.1 27.7
2014-Oct-19 09:00N 24°38' W 052°41'0 0.0 27.7
2014-Oct-19 08:00N 24°38' W 052°41'4 0.5 27.7
2014-Oct-19 01:00N 24°41' W 052°41'1 0.8 27.7
2014-Oct-19 00:00N 24°42' W 052°41'1 0.3 27.7
2014-Oct-18 21:00N 24°43' W 052°42'1 0.8 27.8
2014-Oct-18 20:00N 24°43' W 052°41'1 0.5 27.8
2014-Oct-18 17:00N 24°43' W 052°42'0 0.0 28.0
2014-Oct-18 15:00N 24°43' W 052°42'1 0.2 28.0
2014-Oct-18 12:00N 24°44' W 052°42'0 0.0 27.7
2014-Oct-18 11:00N 24°44' W 052°42'0 0.0 27.7
2014-Oct-18 10:00N 24°44' W 052°42'2 1.8 27.7
2014-Oct-18 09:00N 24°45' W 052°40'0 0.0 27.7
2014-Oct-18 07:00N 24°45' W 052°40'0 0.0 27.7
2014-Oct-18 06:00N 24°45' W 052°40'2 1.8 27.7
2014-Oct-18 05:00N 24°46' W 052°39'1 0.3 27.7
2014-Oct-18 02:00N 24°47' W 052°39'0 0.0 27.8
2014-Oct-18 01:00N 24°47' W 052°39'2 0.8 27.8
2014-Oct-17 23:00N 24°49' W 052°39'2 1.8 27.8
2014-Oct-17 22:00N 24°50' W 052°39'0 0.0 27.8
2014-Oct-17 21:00N 24°50' W 052°39'0 0.0 27.8
2014-Oct-17 19:00N 24°50' W 052°39'1 0.4 27.9
2014-Oct-17 17:00N 24°51' W 052°40'0 0.0 27.9
2014-Oct-17 15:00N 24°51' W 052°40'1 0.9 27.8
2014-Oct-17 14:00N 24°51' W 052°39'0 0.1 27.8
2014-Oct-17 12:00N 24°51' W 052°39'0 0.0 27.7
2014-Oct-17 10:00N 24°51' W 052°39'1 0.5 27.7
2014-Oct-17 08:00N 24°51' W 052°38'0 0.0 27.7
2014-Oct-17 07:00N 24°51' W 052°38'0 0.0 27.7
2014-Oct-17 06:00N 24°51' W 052°38'5 0.8 27.7
2014-Oct-17 00:00N 24°54' W 052°33'0 0.0 27.8
2014-Oct-16 23:00N 24°54' W 052°33'0 0.0 27.8
2014-Oct-16 22:00N 24°54' W 052°33'2 0.8 27.8
2014-Oct-16 20:00N 24°55' W 052°32'1 0.1 27.8
2014-Oct-16 11:00N 24°56' W 052°31'0 0.0 27.8
2014-Oct-16 10:00N 24°56' W 052°31'1 0.2 27.8
2014-Oct-16 06:00N 24°55' W 052°31'7 0.6 27.8
2014-Oct-15 18:00N 24°56' W 052°22'0 0.1 28.0
2014-Oct-15 16:00N 24°56' W 052°22'3 0.8 28.0
2014-Oct-15 12:00N 24°56' W 052°19'1 0.2 28.0
2014-Oct-15 06:00N 24°56' W 052°18'4 0.8 28.1
2014-Oct-15 01:00N 24°55' W 052°14'0 0.0 28.3
2014-Oct-14 23:00N 24°55' W 052°14'1 0.1 28.4
2014-Oct-14 18:00N 24°55' W 052°13'0 0.2 29.2
2014-Oct-14 16:00N 24°55' W 052°13'1 0.4 29.2
2014-Oct-14 13:00N 24°55' W 052°11'1 0.7 28.3
2014-Oct-14 12:00N 24°55' W 052°11'0 0.1 28.1
2014-Oct-14 09:00N 24°55' W 052°11'0 0.1 28.0
2014-Oct-14 06:00N 24°55' W 052°11'3 0.5 28.1
2014-Oct-14 01:00N 24°53' W 052°09'1 0.5 28.2
2014-Oct-13 22:00N 24°53' W 052°08'0 0.2 28.5
2014-Oct-13 20:00N 24°53' W 052°08'0 0.4 28.9
2014-Oct-13 19:00N 24°53' W 052°08'0 0.4 29.0
2014-Oct-13 18:00N 24°53' W 052°07'0 0.2 29.1
2014-Oct-13 17:00N 24°53' W 052°07'0 0.0 29.1
2014-Oct-13 16:00N 24°53' W 052°07'2 0.3 29.3
2014-Oct-13 10:00N 24°52' W 052°06'1 0.8 27.9
2014-Oct-13 09:00N 24°52' W 052°05'0 0.0 27.9
2014-Oct-13 08:00N 24°52' W 052°05'0 0.1 27.9
2014-Oct-13 07:00N 24°52' W 052°05'2 0.4 28.0
2014-Oct-13 01:00N 24°51' W 052°02'0 0.0 28.0
2014-Oct-13 00:00N 24°51' W 052°02'0 0.0 28.0
2014-Oct-12 21:00N 24°51' W 052°02'2 1.7 28.1
2014-Oct-12 20:00N 24°50' W 052°04'0 0.0 28.1
2014-Oct-12 18:00N 24°50' W 052°04'0 0.1 28.1
2014-Oct-12 16:00N 24°50' W 052°04'3 1.5 28.1
2014-Oct-12 14:00N 24°47' W 052°02'0 0.0 28.0
2014-Oct-12 12:00N 24°47' W 052°02'0 0.0 27.9
2014-Oct-12 11:00N 24°47' W 052°02'0 0.1 27.9
2014-Oct-12 10:00N 24°47' W 052°02'1 0.6 27.9
2014-Oct-12 09:00N 24°47' W 052°01'2 0.2 27.9
2014-Oct-12 00:00N 24°45' W 052°02'0 0.0 28.0
2014-Oct-11 23:00N 24°45' W 052°02'0 0.0 28.0
2014-Oct-11 20:00N 24°45' W 052°01'0 0.0 28.0
2014-Oct-11 19:00N 24°45' W 052°01'1 0.4 28.1
2014-Oct-11 17:00N 24°44' W 052°01'0 0.0 28.1
2014-Oct-11 16:00N 24°44' W 052°01'1 1.3 28.1
2014-Oct-11 15:00N 24°43' W 052°01'2 0.4 28.0
2014-Oct-11 11:00N 24°42' W 052°00'0 0.0 27.9
2014-Oct-11 10:00N 24°42' W 052°00'1 1.1 27.9
2014-Oct-11 09:00N 24°41' W 051°59'0 0.0 27.9
2014-Oct-11 07:00N 24°41' W 051°59'0 0.0 27.9
2014-Oct-11 05:00N 24°41' W 051°59'1 1.1 27.9
2014-Oct-11 04:00N 24°41' W 052°00'1 0.4 27.9
2014-Oct-11 01:00N 24°40' W 052°02'1 0.3 28.0
2014-Oct-10 22:00N 24°39' W 052°02'0 0.0 28.0
2014-Oct-10 19:00N 24°39' W 052°02'1 0.8 28.0
2014-Oct-10 18:00N 24°39' W 052°03'0 0.0 28.0
2014-Oct-10 17:00N 24°39' W 052°03'   28.0

Dump ship's entire track history